createdAt,value
2023-08-22T00:00:45.783Z,66.70
2023-08-22T00:03:51.400Z,66.80
2023-08-22T00:07:01.465Z,66.80
2023-08-22T00:10:07.618Z,67.00
2023-08-22T00:13:15.828Z,67.00
2023-08-22T00:16:21.278Z,67.00
2023-08-22T00:19:30.601Z,67.10
2023-08-22T00:22:39.388Z,67.10
2023-08-22T00:25:46.969Z,67.20
2023-08-22T00:28:52.374Z,67.20
2023-08-22T00:32:01.797Z,67.30
2023-08-22T00:35:15.922Z,67.40
2023-08-22T00:38:27.028Z,67.40
2023-08-22T00:41:32.406Z,67.50
2023-08-22T00:44:39.813Z,67.50
2023-08-22T00:47:45.292Z,67.60
2023-08-22T00:50:52.703Z,67.80
2023-08-22T00:54:01.312Z,67.80
2023-08-22T00:57:08.999Z,68.00
2023-08-22T01:00:15.173Z,68.00
2023-08-22T01:03:22.576Z,68.10
2023-08-22T01:06:36.722Z,68.10
2023-08-22T01:09:52.615Z,68.30
2023-08-22T01:13:05.661Z,68.40
2023-08-22T01:16:13.961Z,68.40
2023-08-22T01:19:21.587Z,68.40
2023-08-22T01:22:31.580Z,68.50
2023-08-22T01:25:38.284Z,68.60
2023-08-22T01:28:49.906Z,68.50
2023-08-22T01:32:00.896Z,68.70
2023-08-22T01:35:10.728Z,68.80
2023-08-22T01:38:19.816Z,68.70
2023-08-22T01:41:27.986Z,68.80
2023-08-22T01:44:33.298Z,68.80
2023-08-22T01:47:40.856Z,68.90
2023-08-22T01:50:46.455Z,68.90
2023-08-22T01:53:56.379Z,69.10
2023-08-22T01:57:01.646Z,69.20
2023-08-22T02:00:11.795Z,69.10
2023-08-22T02:03:20.300Z,69.20
2023-08-22T02:06:27.701Z,69.30
2023-08-22T02:09:36.474Z,69.40
2023-08-22T02:12:43.890Z,69.50
2023-08-22T02:15:49.656Z,69.50
2023-08-22T02:18:57.908Z,69.50
2023-08-22T02:22:05.639Z,69.60
2023-08-22T02:25:16.128Z,69.60
2023-08-22T02:28:21.458Z,69.80
2023-08-22T02:31:29.017Z,69.80
2023-08-22T02:34:34.340Z,69.80
2023-08-22T02:37:41.883Z,69.90
2023-08-22T02:40:50.358Z,70.00
2023-08-22T02:43:57.666Z,70.10
2023-08-22T02:47:03.697Z,70.20
2023-08-22T02:50:12.073Z,70.30
2023-08-22T02:53:17.410Z,70.30
2023-08-22T02:56:29.059Z,70.40
2023-08-22T02:59:34.634Z,70.60
2023-08-22T03:02:43.312Z,70.60
2023-08-22T03:05:49.114Z,70.60
2023-08-22T03:08:56.457Z,70.70
2023-08-22T03:12:04.660Z,70.80
2023-08-22T03:15:13.084Z,70.90
2023-08-22T03:18:20.511Z,70.90
2023-08-22T03:21:28.389Z,71.00
2023-08-22T03:24:34.536Z,71.00
2023-08-22T03:27:45.336Z,71.00
2023-08-22T03:30:50.839Z,71.10
2023-08-22T03:33:58.520Z,71.10
2023-08-22T03:37:04.159Z,71.20
2023-08-22T03:40:12.990Z,71.20
2023-08-22T03:43:22.792Z,71.30
2023-08-22T03:46:38.201Z,71.40
2023-08-22T03:49:48.142Z,71.30
2023-08-22T03:52:55.468Z,71.40
2023-08-22T03:56:02.031Z,71.40
2023-08-22T03:59:15.387Z,71.50
2023-08-22T04:02:20.920Z,71.50
2023-08-22T04:05:28.838Z,71.50
2023-08-22T04:08:34.169Z,71.60
2023-08-22T04:11:42.155Z,71.70
2023-08-22T04:14:50.125Z,71.70
2023-08-22T04:17:57.441Z,71.80
2023-08-22T04:21:02.791Z,72.40
2023-08-22T04:24:11.225Z,71.80
2023-08-22T04:27:17.275Z,71.90
2023-08-22T04:30:27.783Z,72.00
2023-08-22T04:33:34.204Z,72.10
2023-08-22T04:36:41.598Z,72.10
2023-08-22T04:39:47.176Z,72.10
2023-08-22T04:43:29.840Z,72.20
2023-08-22T04:46:38.850Z,72.10
2023-08-22T04:49:47.313Z,72.40
2023-08-22T04:52:52.986Z,72.90
2023-08-22T04:56:00.269Z,74.40
2023-08-22T04:59:07.666Z,74.80
2023-08-22T05:02:17.948Z,72.90
2023-08-22T05:05:23.416Z,73.30
2023-08-22T05:08:30.724Z,73.20
2023-08-22T05:11:36.343Z,73.40
2023-08-22T05:14:44.801Z,73.70
2023-08-22T05:17:52.852Z,73.90
2023-08-22T05:21:00.424Z,74.60
2023-08-22T05:24:06.825Z,74.80
2023-08-22T05:27:15.144Z,75.20
2023-08-22T05:30:20.662Z,76.10
2023-08-22T05:33:30.634Z,76.60
2023-08-22T05:36:35.966Z,75.70
2023-08-22T05:39:43.971Z,75.60
2023-08-22T05:42:49.388Z,75.40
2023-08-22T05:45:56.753Z,76.00
2023-08-22T05:49:04.788Z,77.20
2023-08-22T05:52:12.128Z,80.00
2023-08-22T05:55:17.641Z,82.70
2023-08-22T05:58:26.212Z,80.50
2023-08-22T06:01:33.132Z,78.90
2023-08-22T06:04:44.768Z,78.00
2023-08-22T06:07:50.225Z,78.40
2023-08-22T06:10:58.131Z,78.40
2023-08-22T06:14:04.107Z,79.10
2023-08-22T06:17:11.653Z,79.10
2023-08-22T06:20:19.965Z,79.20
2023-08-22T06:23:27.517Z,78.70
2023-08-22T06:26:35.295Z,79.60
2023-08-22T06:29:42.596Z,79.10
2023-08-22T06:32:47.895Z,79.60
2023-08-22T06:35:57.886Z,79.60
2023-08-22T06:39:11.414Z,79.30
2023-08-22T06:42:18.884Z,80.20
2023-08-22T06:45:28.771Z,80.10
2023-08-22T06:48:42.089Z,80.50
2023-08-22T06:51:53.126Z,80.70
2023-08-22T06:55:02.201Z,81.30
2023-08-22T06:58:11.296Z,83.60
2023-08-22T07:01:20.641Z,85.40
2023-08-22T07:04:30.825Z,85.90
2023-08-22T07:07:43.107Z,86.00
2023-08-22T07:10:49.311Z,85.90
2023-08-22T07:14:00.391Z,87.30
2023-08-22T07:17:09.094Z,90.80
2023-08-22T07:20:18.886Z,83.50
2023-08-22T07:23:26.935Z,82.80
2023-08-22T07:26:34.218Z,81.30
2023-08-22T07:29:39.512Z,81.40
2023-08-22T07:32:46.810Z,80.80
2023-08-22T07:35:52.146Z,80.50
2023-08-22T07:39:02.424Z,79.70
2023-08-22T07:42:07.922Z,79.30
2023-08-22T07:45:15.262Z,78.90
2023-08-22T07:48:20.646Z,79.00
2023-08-22T07:51:27.980Z,79.00
2023-08-22T07:54:36.049Z,78.90
2023-08-22T07:57:43.314Z,78.70
2023-08-22T08:00:50.954Z,78.00
2023-08-22T08:03:59.200Z,78.10
2023-08-22T08:07:04.825Z,77.80
2023-08-22T08:10:15.226Z,77.60
2023-08-22T08:13:20.583Z,77.20
2023-08-22T08:19:40.931Z,76.80
2023-08-22T08:22:48.260Z,76.90
2023-08-22T08:25:56.188Z,76.40
2023-08-22T08:29:03.821Z,76.70
2023-08-22T08:32:09.225Z,75.50
2023-08-22T08:35:16.886Z,75.50
2023-08-22T08:38:22.226Z,81.80
2023-08-22T08:41:37.005Z,68.30
2023-08-22T08:44:43.165Z,67.70
2023-08-22T08:47:51.043Z,67.60
2023-08-22T08:50:57.395Z,67.40
2023-08-22T08:54:06.059Z,67.10
2023-08-22T08:57:14.150Z,66.80
2023-08-22T09:00:22.139Z,66.50
2023-08-22T09:03:27.537Z,66.40
2023-08-22T09:06:34.877Z,66.10
2023-08-22T09:09:40.469Z,65.90
2023-08-22T09:12:50.582Z,65.70
2023-08-22T09:16:01.112Z,65.50
2023-08-22T09:19:08.720Z,65.40
2023-08-22T09:22:17.254Z,65.40
2023-08-22T09:25:24.556Z,65.00
2023-08-22T09:28:34.636Z,65.10
2023-08-22T09:31:40.194Z,64.70
2023-08-22T09:34:56.955Z,64.60
2023-08-22T09:38:11.429Z,64.20
2023-08-22T09:41:30.147Z,64.10
2023-08-22T09:44:42.751Z,64.10
2023-08-22T09:47:54.561Z,64.10
2023-08-22T09:51:03.750Z,63.90
2023-08-22T09:54:11.377Z,63.70
2023-08-22T09:57:17.177Z,63.60
2023-08-22T10:00:31.975Z,63.50
2023-08-22T10:03:40.740Z,63.40
2023-08-22T10:06:54.511Z,63.20
2023-08-22T10:10:00.841Z,63.00
2023-08-22T10:13:10.469Z,62.90
2023-08-22T10:16:22.210Z,62.50
2023-08-22T10:19:30.664Z,62.20
2023-08-22T10:22:38.529Z,62.20
2023-08-22T10:25:53.340Z,62.10
2023-08-22T10:29:17.100Z,62.00
2023-08-22T10:32:32.814Z,61.90
2023-08-22T10:35:38.526Z,62.00
2023-08-22T10:38:55.603Z,61.90
2023-08-22T10:42:01.053Z,61.70
2023-08-22T10:45:20.866Z,61.80
2023-08-22T10:48:28.755Z,61.50
2023-08-22T10:51:47.035Z,61.40
2023-08-22T10:55:11.172Z,61.30
2023-08-22T10:58:37.238Z,61.10
2023-08-22T11:01:42.608Z,61.00
2023-08-22T11:04:53.374Z,61.20
2023-08-22T11:07:58.776Z,60.90
2023-08-22T11:11:06.602Z,60.80
2023-08-22T11:14:11.864Z,60.70
2023-08-22T11:17:19.917Z,60.40
2023-08-22T11:20:27.864Z,60.30
2023-08-22T11:23:36.320Z,60.10
2023-08-22T11:26:41.544Z,60.00
2023-08-22T11:29:51.129Z,60.00
2023-08-22T11:32:56.433Z,59.90
2023-08-22T11:36:07.263Z,59.80
2023-08-22T11:39:12.692Z,59.60
2023-08-22T11:42:20.731Z,59.80
2023-08-22T11:45:26.741Z,59.80
2023-08-22T11:48:34.089Z,59.70
2023-08-22T11:51:41.944Z,59.70
2023-08-22T11:54:49.779Z,59.40
2023-08-22T11:57:57.533Z,59.40
2023-08-22T12:01:05.729Z,59.30
2023-08-22T12:04:11.153Z,59.10
2023-08-22T12:07:21.165Z,58.90
2023-08-22T12:10:26.457Z,59.00
2023-08-22T12:13:33.805Z,59.20
2023-08-22T12:16:54.089Z,59.20
2023-08-22T12:20:02.032Z,59.10
2023-08-22T12:23:10.938Z,58.90
2023-08-22T12:26:18.328Z,58.70
2023-08-22T12:29:23.593Z,58.70
2023-08-22T12:32:32.621Z,58.60
2023-08-22T12:35:41.559Z,58.60
2023-08-22T12:38:51.497Z,58.60
2023-08-22T12:41:56.797Z,58.40
2023-08-22T12:45:04.520Z,58.40
2023-08-22T12:48:10.270Z,58.40
2023-08-22T12:51:17.564Z,58.20
2023-08-22T12:54:25.446Z,58.10
2023-08-22T12:57:32.767Z,58.00
2023-08-22T13:00:39.801Z,57.90
2023-08-22T13:03:47.683Z,57.60
2023-08-22T13:06:53.118Z,57.60
2023-08-22T13:10:05.353Z,57.40
2023-08-22T13:13:13.948Z,57.30
2023-08-22T13:16:22.060Z,57.00
2023-08-22T13:19:29.090Z,57.00
2023-08-22T13:22:36.430Z,56.90
2023-08-22T13:25:44.719Z,56.70
2023-08-22T13:28:52.607Z,56.20
2023-08-22T13:31:57.937Z,56.20
2023-08-22T13:35:05.388Z,56.20
2023-08-22T13:38:10.733Z,56.10
2023-08-22T13:41:23.162Z,56.10
2023-08-22T13:44:28.488Z,55.80
2023-08-22T13:47:36.018Z,55.90
2023-08-22T13:50:42.970Z,55.60
2023-08-22T13:53:50.360Z,55.70
2023-08-22T13:56:58.217Z,55.50
2023-08-22T14:00:05.685Z,55.10
2023-08-22T14:03:11.061Z,55.20
2023-08-22T14:06:18.513Z,55.10
2023-08-22T14:09:26.797Z,55.10
2023-08-22T14:12:37.146Z,55.10
2023-08-22T14:15:42.575Z,54.90
2023-08-22T14:18:49.961Z,54.90
2023-08-22T14:21:56.405Z,55.10
2023-08-22T14:25:04.572Z,55.00
2023-08-22T14:28:12.529Z,54.90
2023-08-22T14:31:20.009Z,54.90
2023-08-22T14:34:25.413Z,55.10
2023-08-22T14:37:34.260Z,55.10
2023-08-22T14:40:39.596Z,55.10
2023-08-22T14:43:49.656Z,55.10
2023-08-22T14:46:55.043Z,55.00
2023-08-22T14:50:02.520Z,55.10
2023-08-22T14:53:08.168Z,55.00
2023-08-22T14:56:15.581Z,54.90
2023-08-22T14:59:24.607Z,54.70
2023-08-22T15:02:31.919Z,54.50
2023-08-22T15:05:41.262Z,54.50
2023-08-22T15:08:48.711Z,54.40
2023-08-22T15:11:53.965Z,54.40
2023-08-22T15:15:04.546Z,54.40
2023-08-22T15:18:10.193Z,54.30
2023-08-22T15:21:17.578Z,54.40
2023-08-22T15:24:22.925Z,54.30
2023-08-22T15:27:33.087Z,54.20
2023-08-22T15:30:41.096Z,54.20
2023-08-22T15:33:48.460Z,54.20
2023-08-22T15:36:54.748Z,54.20
2023-08-22T15:40:05.677Z,54.20
2023-08-22T15:43:10.985Z,54.10
2023-08-22T15:46:20.911Z,54.00
2023-08-22T15:49:26.295Z,54.00
2023-08-22T15:52:40.924Z,54.00
2023-08-22T15:55:47.397Z,54.10
2023-08-22T15:58:54.730Z,54.10
2023-08-22T16:02:02.661Z,54.20
2023-08-22T16:05:10.842Z,54.30
2023-08-22T16:08:16.241Z,54.30
2023-08-22T16:11:23.589Z,54.70
2023-08-22T16:14:29.045Z,54.20
2023-08-22T16:17:39.396Z,54.10
2023-08-22T16:20:45.884Z,54.00
2023-08-22T16:23:53.822Z,54.10
2023-08-22T16:26:59.473Z,54.20
2023-08-22T16:30:08.364Z,54.20
2023-08-22T16:33:16.403Z,54.20
2023-08-22T16:36:24.347Z,54.30
2023-08-22T16:39:29.615Z,54.50
2023-08-22T16:42:37.050Z,54.50
2023-08-22T16:45:45.989Z,54.40
2023-08-22T16:48:56.336Z,54.50
2023-08-22T16:52:01.951Z,54.50
2023-08-22T16:55:11.824Z,54.60
2023-08-22T16:58:17.849Z,54.60
2023-08-22T17:01:28.341Z,54.70
2023-08-22T17:04:36.524Z,54.80
2023-08-22T17:07:44.381Z,54.80
2023-08-22T17:10:50.412Z,55.00
2023-08-22T17:13:58.083Z,55.10
2023-08-22T17:17:03.475Z,55.30
2023-08-22T17:20:15.360Z,55.40
2023-08-22T17:23:20.679Z,55.60
2023-08-22T17:26:27.951Z,55.70
2023-08-22T17:29:33.295Z,56.00
2023-08-22T17:32:40.678Z,56.10
2023-08-22T17:35:48.650Z,56.20
2023-08-22T17:38:56.058Z,56.40
2023-08-22T17:42:01.325Z,56.50
2023-08-22T17:45:09.858Z,56.60
2023-08-22T17:48:15.147Z,56.60
2023-08-22T17:51:25.130Z,56.80
2023-08-22T17:54:30.467Z,57.00
2023-08-22T17:57:37.987Z,57.20
2023-08-22T18:00:43.626Z,57.30
2023-08-22T18:03:52.600Z,57.70
2023-08-22T18:07:00.752Z,57.60
2023-08-22T18:10:09.587Z,57.70
2023-08-22T18:13:15.169Z,57.80
2023-08-22T18:16:22.729Z,58.00
2023-08-22T18:19:28.302Z,58.00
2023-08-22T18:22:38.852Z,58.10
2023-08-22T18:25:44.130Z,58.20
2023-08-22T18:28:51.424Z,58.40
2023-08-22T18:31:56.856Z,58.50
2023-08-22T18:35:04.217Z,58.60
2023-08-22T18:38:15.550Z,58.70
2023-08-22T18:41:25.078Z,58.80
2023-08-22T18:44:30.514Z,58.90
2023-08-22T18:47:37.898Z,59.00
2023-08-22T18:50:44.088Z,59.00
2023-08-22T18:53:54.807Z,59.10
2023-08-22T18:57:00.148Z,59.30
2023-08-22T19:00:16.022Z,59.30
2023-08-22T19:03:21.755Z,59.40
2023-08-22T19:06:29.208Z,59.50
2023-08-22T19:09:37.041Z,59.50
2023-08-22T19:12:44.375Z,59.80
2023-08-22T19:15:51.075Z,59.80
2023-08-22T19:18:58.826Z,60.00
2023-08-22T19:22:04.065Z,60.10
2023-08-22T19:25:14.373Z,60.10
2023-08-22T19:28:19.714Z,60.40
2023-08-22T19:31:27.374Z,60.40
2023-08-22T19:34:33.208Z,60.60
2023-08-22T19:37:40.572Z,60.80
2023-08-22T19:40:49.925Z,61.00
2023-08-22T19:43:57.302Z,61.10
2023-08-22T19:47:02.723Z,61.20
2023-08-22T19:50:11.233Z,61.40
2023-08-22T19:53:17.397Z,61.60
2023-08-22T19:56:27.674Z,61.70
2023-08-22T19:59:33.033Z,61.90
2023-08-22T20:02:40.686Z,62.00
2023-08-22T20:05:48.320Z,62.10
2023-08-22T20:08:56.188Z,62.10
2023-08-22T20:12:04.106Z,62.30
2023-08-22T20:15:12.155Z,62.50
2023-08-22T20:18:17.553Z,62.60
2023-08-22T20:21:25.520Z,62.70
2023-08-22T20:24:30.869Z,62.80
2023-08-22T20:27:40.969Z,62.90
2023-08-22T20:30:53.687Z,63.30
2023-08-22T20:34:01.715Z,63.20
2023-08-22T20:37:07.617Z,63.30
2023-08-22T20:40:15.325Z,63.40
2023-08-22T20:43:23.256Z,63.50
2023-08-22T20:46:30.799Z,63.80
2023-08-22T20:49:36.065Z,63.80
2023-08-22T20:52:43.485Z,63.90
2023-08-22T20:55:52.887Z,64.00
2023-08-22T20:59:02.821Z,64.30
2023-08-22T21:02:08.746Z,64.30
2023-08-22T21:05:17.922Z,64.40
2023-08-22T21:08:23.350Z,64.70
2023-08-22T21:11:30.764Z,65.60
2023-08-22T21:14:38.668Z,73.40
2023-08-22T21:17:46.750Z,73.60
2023-08-22T21:20:55.566Z,73.90
2023-08-22T21:24:03.039Z,73.90
2023-08-22T21:27:08.791Z,72.70
2023-08-22T21:30:21.261Z,72.60
2023-08-22T21:33:26.894Z,73.00
2023-08-22T21:36:34.332Z,73.30
2023-08-22T21:39:40.010Z,73.00
2023-08-22T21:42:47.656Z,77.00
2023-08-22T21:45:58.369Z,75.00
2023-08-22T21:49:05.807Z,66.30
2023-08-22T21:52:13.009Z,66.10
2023-08-22T21:55:22.573Z,66.40
2023-08-22T21:58:27.793Z,67.40
2023-08-22T22:01:37.657Z,68.70
2023-08-22T22:04:43.494Z,71.60
2023-08-22T22:07:50.803Z,73.90
2023-08-22T22:10:56.179Z,75.20
2023-08-22T22:14:03.589Z,66.60
2023-08-22T22:17:13.444Z,66.50
2023-08-22T22:20:18.879Z,66.70
2023-08-22T22:23:26.739Z,66.80
2023-08-22T22:26:33.371Z,66.80
2023-08-22T22:29:40.666Z,68.10
2023-08-22T22:32:48.572Z,67.50
2023-08-22T22:35:56.122Z,67.50
2023-08-22T22:39:01.780Z,67.10
2023-08-22T22:42:09.686Z,67.50
2023-08-22T22:45:15.016Z,67.30
2023-08-22T22:48:25.653Z,67.50
2023-08-22T22:51:31.066Z,69.80
2023-08-22T22:54:39.841Z,67.90
2023-08-22T22:57:45.583Z,68.40
2023-08-22T23:00:53.148Z,68.10
2023-08-22T23:04:01.134Z,68.40
2023-08-22T23:07:08.866Z,68.40
2023-08-22T23:10:14.557Z,68.50
2023-08-22T23:13:22.202Z,70.80
2023-08-22T23:16:27.605Z,72.80
2023-08-22T23:19:38.661Z,74.60
2023-08-22T23:22:45.971Z,76.70
2023-08-22T23:25:54.101Z,72.90
2023-08-22T23:28:59.323Z,68.30
2023-08-22T23:32:06.894Z,68.30
2023-08-22T23:35:15.564Z,68.30
2023-08-22T23:38:22.916Z,68.40
2023-08-22T23:41:31.025Z,68.50
2023-08-22T23:44:38.447Z,68.50
2023-08-22T23:47:43.791Z,68.50
2023-08-22T23:50:56.052Z,68.60
2023-08-22T23:54:06.098Z,68.80
2023-08-22T23:57:13.358Z,68.80
